sensor_id;sensor_type;location;lat;lon;timestamp;P1;durP1;ratioP1;P2;durP2;ratioP2
8317;SDS011;4196;48.926;8.964;2023-11-19T00:00:09;2.23;;;2.00;;
8317;SDS011;4196;48.926;8.964;2023-11-19T00:02:58;2.80;;;2.23;;
8317;SDS011;4196;48.926;8.964;2023-11-19T00:05:45;4.50;;;2.40;;
8317;SDS011;4196;48.926;8.964;2023-11-19T00:08:31;2.27;;;2.07;;
8317;SDS011;4196;48.926;8.964;2023-11-19T00:11:18;5.13;;;2.40;;
8317;SDS011;4196;48.926;8.964;2023-11-19T00:14:04;3.43;;;2.23;;
8317;SDS011;4196;48.926;8.964;2023-11-19T00:16:54;3.40;;;2.23;;
8317;SDS011;4196;48.926;8.964;2023-11-19T00:19:40;5.17;;;2.40;;
8317;SDS011;4196;48.926;8.964;2023-11-19T00:22:27;4.03;;;2.30;;
8317;SDS011;4196;48.926;8.964;2023-11-19T00:25:14;3.83;;;2.40;;
8317;SDS011;4196;48.926;8.964;2023-11-19T00:28:01;3.93;;;2.50;;
8317;SDS011;4196;48.926;8.964;2023-11-19T00:30:48;3.30;;;2.50;;
8317;SDS011;4196;48.926;8.964;2023-11-19T00:33:35;3.67;;;2.27;;
8317;SDS011;4196;48.926;8.964;2023-11-19T00:36:35;3.77;;;2.80;;
8317;SDS011;4196;48.926;8.964;2023-11-19T00:39:22;3.93;;;2.37;;
8317;SDS011;4196;48.926;8.964;2023-11-19T00:42:08;4.40;;;2.40;;
8317;SDS011;4196;48.926;8.964;2023-11-19T00:44:57;3.60;;;2.73;;
8317;SDS011;4196;48.926;8.964;2023-11-19T00:47:44;4.47;;;2.70;;
8317;SDS011;4196;48.926;8.964;2023-11-19T00:50:31;3.70;;;2.70;;
8317;SDS011;4196;48.926;8.964;2023-11-19T00:53:21;3.00;;;2.40;;
8317;SDS011;4196;48.926;8.964;2023-11-19T00:56:07;4.30;;;2.90;;
8317;SDS011;4196;48.926;8.964;2023-11-19T00:58:54;4.90;;;2.97;;
8317;SDS011;4196;48.926;8.964;2023-11-19T01:01:42;3.77;;;2.90;;
8317;SDS011;4196;48.926;8.964;2023-11-19T01:04:35;4.33;;;2.90;;
8317;SDS011;4196;48.926;8.964;2023-11-19T01:07:22;6.10;;;3.80;;
8317;SDS011;4196;48.926;8.964;2023-11-19T01:10:10;4.33;;;3.07;;
8317;SDS011;4196;48.926;8.964;2023-11-19T01:12:57;4.63;;;2.90;;
8317;SDS011;4196;48.926;8.964;2023-11-19T01:15:45;4.83;;;3.20;;
8317;SDS011;4196;48.926;8.964;2023-11-19T01:18:31;4.17;;;3.30;;
8317;SDS011;4196;48.926;8.964;2023-11-19T01:21:18;4.30;;;3.53;;
8317;SDS011;4196;48.926;8.964;2023-11-19T01:24:05;3.83;;;2.90;;
8317;SDS011;4196;48.926;8.964;2023-11-19T01:26:55;4.67;;;3.40;;
8317;SDS011;4196;48.926;8.964;2023-11-19T01:29:43;5.13;;;3.63;;
8317;SDS011;4196;48.926;8.964;2023-11-19T01:32:30;5.20;;;3.83;;
8317;SDS011;4196;48.926;8.964;2023-11-19T01:35:16;4.37;;;3.47;;
8317;SDS011;4196;48.926;8.964;2023-11-19T01:38:03;5.33;;;3.27;;
8317;SDS011;4196;48.926;8.964;2023-11-19T01:40:49;3.77;;;3.10;;
8317;SDS011;4196;48.926;8.964;2023-11-19T01:43:36;5.03;;;3.57;;
8317;SDS011;4196;48.926;8.964;2023-11-19T01:46:24;5.60;;;3.60;;
8317;SDS011;4196;48.926;8.964;2023-11-19T01:49:11;4.07;;;3.10;;
8317;SDS011;4196;48.926;8.964;2023-11-19T01:52:00;5.77;;;3.37;;
8317;SDS011;4196;48.926;8.964;2023-11-19T01:54:46;4.20;;;3.10;;
8317;SDS011;4196;48.926;8.964;2023-11-19T01:57:33;4.80;;;3.50;;
8317;SDS011;4196;48.926;8.964;2023-11-19T02:00:21;4.43;;;4.03;;
8317;SDS011;4196;48.926;8.964;2023-11-19T02:03:08;4.63;;;3.40;;
8317;SDS011;4196;48.926;8.964;2023-11-19T02:05:55;4.97;;;3.40;;
8317;SDS011;4196;48.926;8.964;2023-11-19T02:08:42;4.23;;;3.20;;
8317;SDS011;4196;48.926;8.964;2023-11-19T02:11:30;5.57;;;3.63;;
8317;SDS011;4196;48.926;8.964;2023-11-19T02:14:16;4.57;;;3.33;;
8317;SDS011;4196;48.926;8.964;2023-11-19T02:17:04;5.30;;;3.13;;
8317;SDS011;4196;48.926;8.964;2023-11-19T02:19:51;4.93;;;3.13;;
8317;SDS011;4196;48.926;8.964;2023-11-19T02:22:37;6.87;;;4.47;;
8317;SDS011;4196;48.926;8.964;2023-11-19T02:25:25;5.63;;;4.23;;
8317;SDS011;4196;48.926;8.964;2023-11-19T02:28:18;7.60;;;4.87;;
8317;SDS011;4196;48.926;8.964;2023-11-19T02:31:05;6.10;;;5.23;;
8317;SDS011;4196;48.926;8.964;2023-11-19T02:33:56;6.33;;;3.80;;
8317;SDS011;4196;48.926;8.964;2023-11-19T02:36:42;5.60;;;3.97;;
8317;SDS011;4196;48.926;8.964;2023-11-19T02:39:29;5.73;;;4.60;;
8317;SDS011;4196;48.926;8.964;2023-11-19T02:42:15;4.87;;;3.93;;
8317;SDS011;4196;48.926;8.964;2023-11-19T02:45:02;6.47;;;4.50;;
8317;SDS011;4196;48.926;8.964;2023-11-19T02:47:53;7.03;;;4.50;;
8317;SDS011;4196;48.926;8.964;2023-11-19T02:50:41;5.10;;;3.70;;
8317;SDS011;4196;48.926;8.964;2023-11-19T02:53:29;4.43;;;3.67;;
8317;SDS011;4196;48.926;8.964;2023-11-19T02:56:16;5.20;;;3.77;;
8317;SDS011;4196;48.926;8.964;2023-11-19T02:59:12;6.07;;;3.70;;
8317;SDS011;4196;48.926;8.964;2023-11-19T03:02:13;4.43;;;3.77;;
8317;SDS011;4196;48.926;8.964;2023-11-19T03:05:02;6.33;;;4.57;;
8317;SDS011;4196;48.926;8.964;2023-11-19T03:07:49;8.10;;;3.93;;
8317;SDS011;4196;48.926;8.964;2023-11-19T03:10:36;6.47;;;3.83;;
8317;SDS011;4196;48.926;8.964;2023-11-19T03:13:22;5.30;;;3.73;;
8317;SDS011;4196;48.926;8.964;2023-11-19T03:16:09;6.40;;;4.97;;
8317;SDS011;4196;48.926;8.964;2023-11-19T03:18:57;4.93;;;4.30;;
8317;SDS011;4196;48.926;8.964;2023-11-19T03:21:46;6.27;;;4.17;;
8317;SDS011;4196;48.926;8.964;2023-11-19T03:24:34;5.33;;;3.83;;
8317;SDS011;4196;48.926;8.964;2023-11-19T03:27:21;6.37;;;3.97;;
8317;SDS011;4196;48.926;8.964;2023-11-19T03:30:08;6.07;;;3.90;;
8317;SDS011;4196;48.926;8.964;2023-11-19T03:32:56;4.13;;;3.67;;
8317;SDS011;4196;48.926;8.964;2023-11-19T03:35:47;5.50;;;3.87;;
8317;SDS011;4196;48.926;8.964;2023-11-19T03:38:34;7.00;;;4.30;;
8317;SDS011;4196;48.926;8.964;2023-11-19T03:41:20;5.40;;;4.00;;
8317;SDS011;4196;48.926;8.964;2023-11-19T03:44:06;6.30;;;3.90;;
8317;SDS011;4196;48.926;8.964;2023-11-19T03:46:53;8.20;;;4.23;;
8317;SDS011;4196;48.926;8.964;2023-11-19T03:49:40;7.13;;;4.30;;
8317;SDS011;4196;48.926;8.964;2023-11-19T03:52:26;5.83;;;4.27;;
8317;SDS011;4196;48.926;8.964;2023-11-19T03:55:14;6.30;;;4.10;;
8317;SDS011;4196;48.926;8.964;2023-11-19T03:58:00;6.50;;;4.17;;
8317;SDS011;4196;48.926;8.964;2023-11-19T04:00:47;5.70;;;4.33;;
8317;SDS011;4196;48.926;8.964;2023-11-19T04:03:34;7.40;;;5.33;;
8317;SDS011;4196;48.926;8.964;2023-11-19T04:06:20;7.67;;;4.83;;
8317;SDS011;4196;48.926;8.964;2023-11-19T04:09:07;6.30;;;4.23;;
8317;SDS011;4196;48.926;8.964;2023-11-19T04:11:53;6.20;;;4.57;;
8317;SDS011;4196;48.926;8.964;2023-11-19T04:14:40;5.73;;;4.47;;
8317;SDS011;4196;48.926;8.964;2023-11-19T04:17:26;7.17;;;5.30;;
8317;SDS011;4196;48.926;8.964;2023-11-19T04:20:14;5.83;;;5.13;;
8317;SDS011;4196;48.926;8.964;2023-11-19T04:23:01;5.17;;;4.13;;
8317;SDS011;4196;48.926;8.964;2023-11-19T04:25:47;7.23;;;5.23;;
8317;SDS011;4196;48.926;8.964;2023-11-19T04:28:34;6.57;;;5.23;;
8317;SDS011;4196;48.926;8.964;2023-11-19T04:31:20;6.37;;;4.80;;
8317;SDS011;4196;48.926;8.964;2023-11-19T04:34:07;6.67;;;5.23;;
8317;SDS011;4196;48.926;8.964;2023-11-19T04:36:53;6.23;;;4.60;;
8317;SDS011;4196;48.926;8.964;2023-11-19T04:39:40;5.70;;;4.10;;
8317;SDS011;4196;48.926;8.964;2023-11-19T04:42:27;5.77;;;4.57;;
8317;SDS011;4196;48.926;8.964;2023-11-19T04:45:13;4.97;;;3.67;;
8317;SDS011;4196;48.926;8.964;2023-11-19T04:48:00;1.77;;;1.40;;
8317;SDS011;4196;48.926;8.964;2023-11-19T04:50:46;0.67;;;0.67;;
8317;SDS011;4196;48.926;8.964;2023-11-19T04:53:33;0.40;;;0.40;;
8317;SDS011;4196;48.926;8.964;2023-11-19T04:56:19;0.23;;;0.23;;
8317;SDS011;4196;48.926;8.964;2023-11-19T04:59:07;0.30;;;0.30;;
8317;SDS011;4196;48.926;8.964;2023-11-19T05:01:54;0.47;;;0.37;;
8317;SDS011;4196;48.926;8.964;2023-11-19T05:04:44;1.00;;;0.27;;
8317;SDS011;4196;48.926;8.964;2023-11-19T05:07:33;0.30;;;0.30;;
8317;SDS011;4196;48.926;8.964;2023-11-19T05:10:20;0.50;;;0.50;;
8317;SDS011;4196;48.926;8.964;2023-11-19T05:13:07;0.20;;;0.20;;
8317;SDS011;4196;48.926;8.964;2023-11-19T05:15:54;0.20;;;0.20;;
8317;SDS011;4196;48.926;8.964;2023-11-19T05:18:40;0.20;;;0.20;;
8317;SDS011;4196;48.926;8.964;2023-11-19T05:21:29;0.20;;;0.20;;
8317;SDS011;4196;48.926;8.964;2023-11-19T05:24:15;0.30;;;0.30;;
8317;SDS011;4196;48.926;8.964;2023-11-19T05:27:02;0.27;;;0.27;;
8317;SDS011;4196;48.926;8.964;2023-11-19T05:29:48;0.20;;;0.20;;
8317;SDS011;4196;48.926;8.964;2023-11-19T05:32:35;0.33;;;0.30;;
8317;SDS011;4196;48.926;8.964;2023-11-19T05:35:21;1.40;;;0.30;;
8317;SDS011;4196;48.926;8.964;2023-11-19T05:38:07;0.27;;;0.27;;
8317;SDS011;4196;48.926;8.964;2023-11-19T05:40:55;0.33;;;0.33;;
8317;SDS011;4196;48.926;8.964;2023-11-19T05:43:42;0.40;;;0.40;;
8317;SDS011;4196;48.926;8.964;2023-11-19T05:46:28;1.37;;;1.27;;
8317;SDS011;4196;48.926;8.964;2023-11-19T05:49:15;0.30;;;0.30;;
8317;SDS011;4196;48.926;8.964;2023-11-19T05:52:02;0.60;;;0.30;;
8317;SDS011;4196;48.926;8.964;2023-11-19T05:54:50;0.90;;;0.50;;
8317;SDS011;4196;48.926;8.964;2023-11-19T05:57:38;0.93;;;0.70;;
8317;SDS011;4196;48.926;8.964;2023-11-19T06:00:29;0.50;;;0.50;;
8317;SDS011;4196;48.926;8.964;2023-11-19T06:03:16;1.67;;;0.40;;
8317;SDS011;4196;48.926;8.964;2023-11-19T06:06:03;0.30;;;0.30;;
8317;SDS011;4196;48.926;8.964;2023-11-19T06:08:51;2.10;;;0.53;;
8317;SDS011;4196;48.926;8.964;2023-11-19T06:11:37;0.97;;;0.37;;
8317;SDS011;4196;48.926;8.964;2023-11-19T06:14:24;0.50;;;0.50;;
8317;SDS011;4196;48.926;8.964;2023-11-19T06:17:10;0.37;;;0.37;;
8317;SDS011;4196;48.926;8.964;2023-11-19T06:19:57;0.40;;;0.40;;
8317;SDS011;4196;48.926;8.964;2023-11-19T06:22:43;0.37;;;0.30;;
8317;SDS011;4196;48.926;8.964;2023-11-19T06:25:31;0.30;;;0.30;;
8317;SDS011;4196;48.926;8.964;2023-11-19T06:28:19;1.60;;;0.50;;
8317;SDS011;4196;48.926;8.964;2023-11-19T06:31:05;1.53;;;0.50;;
8317;SDS011;4196;48.926;8.964;2023-11-19T06:33:52;0.67;;;0.40;;
8317;SDS011;4196;48.926;8.964;2023-11-19T06:36:39;0.43;;;0.43;;
8317;SDS011;4196;48.926;8.964;2023-11-19T06:39:25;0.30;;;0.30;;
8317;SDS011;4196;48.926;8.964;2023-11-19T06:42:11;0.30;;;0.30;;
8317;SDS011;4196;48.926;8.964;2023-11-19T06:44:58;1.30;;;0.50;;
8317;SDS011;4196;48.926;8.964;2023-11-19T06:47:45;0.63;;;0.63;;
8317;SDS011;4196;48.926;8.964;2023-11-19T06:50:31;0.43;;;0.30;;
8317;SDS011;4196;48.926;8.964;2023-11-19T06:53:18;0.30;;;0.30;;
8317;SDS011;4196;48.926;8.964;2023-11-19T06:56:06;0.23;;;0.23;;
8317;SDS011;4196;48.926;8.964;2023-11-19T06:59:03;1.07;;;0.50;;
8317;SDS011;4196;48.926;8.964;2023-11-19T07:01:49;0.93;;;0.50;;
8317;SDS011;4196;48.926;8.964;2023-11-19T07:04:36;0.27;;;0.23;;
8317;SDS011;4196;48.926;8.964;2023-11-19T07:07:23;0.83;;;0.57;;
8317;SDS011;4196;48.926;8.964;2023-11-19T07:10:09;0.37;;;0.30;;
8317;SDS011;4196;48.926;8.964;2023-11-19T07:12:56;0.20;;;0.20;;
8317;SDS011;4196;48.926;8.964;2023-11-19T07:15:44;1.10;;;1.10;;
8317;SDS011;4196;48.926;8.964;2023-11-19T07:18:30;1.70;;;1.50;;
8317;SDS011;4196;48.926;8.964;2023-11-19T07:21:17;4.60;;;3.43;;
8317;SDS011;4196;48.926;8.964;2023-11-19T07:24:04;5.47;;;2.47;;
8317;SDS011;4196;48.926;8.964;2023-11-19T07:26:50;1.50;;;1.40;;
8317;SDS011;4196;48.926;8.964;2023-11-19T07:29:37;2.17;;;1.77;;
8317;SDS011;4196;48.926;8.964;2023-11-19T07:32:24;0.77;;;0.77;;
8317;SDS011;4196;48.926;8.964;2023-11-19T07:35:11;1.23;;;1.13;;
8317;SDS011;4196;48.926;8.964;2023-11-19T07:37:58;0.93;;;0.80;;
8317;SDS011;4196;48.926;8.964;2023-11-19T07:40:44;2.33;;;1.60;;
8317;SDS011;4196;48.926;8.964;2023-11-19T07:43:45;1.67;;;1.40;;
8317;SDS011;4196;48.926;8.964;2023-11-19T07:46:35;1.93;;;1.07;;
8317;SDS011;4196;48.926;8.964;2023-11-19T07:49:22;1.23;;;1.07;;
8317;SDS011;4196;48.926;8.964;2023-11-19T07:52:09;0.90;;;0.80;;
8317;SDS011;4196;48.926;8.964;2023-11-19T07:54:58;2.40;;;0.60;;
8317;SDS011;4196;48.926;8.964;2023-11-19T07:57:45;1.13;;;1.00;;
8317;SDS011;4196;48.926;8.964;2023-11-19T08:00:31;0.70;;;0.70;;
8317;SDS011;4196;48.926;8.964;2023-11-19T08:03:17;2.00;;;0.83;;
8317;SDS011;4196;48.926;8.964;2023-11-19T08:06:08;0.90;;;0.90;;
8317;SDS011;4196;48.926;8.964;2023-11-19T08:08:55;1.67;;;0.53;;
8317;SDS011;4196;48.926;8.964;2023-11-19T08:11:41;3.97;;;1.10;;
8317;SDS011;4196;48.926;8.964;2023-11-19T08:14:28;4.13;;;1.03;;
8317;SDS011;4196;48.926;8.964;2023-11-19T08:17:14;1.07;;;1.00;;
8317;SDS011;4196;48.926;8.964;2023-11-19T08:20:01;2.47;;;1.10;;
8317;SDS011;4196;48.926;8.964;2023-11-19T08:22:47;4.47;;;2.20;;
8317;SDS011;4196;48.926;8.964;2023-11-19T08:25:34;1.03;;;0.97;;
8317;SDS011;4196;48.926;8.964;2023-11-19T08:28:21;1.00;;;0.90;;
8317;SDS011;4196;48.926;8.964;2023-11-19T08:31:07;1.90;;;1.67;;
8317;SDS011;4196;48.926;8.964;2023-11-19T08:33:54;0.60;;;0.60;;
8317;SDS011;4196;48.926;8.964;2023-11-19T08:36:40;0.53;;;0.50;;
8317;SDS011;4196;48.926;8.964;2023-11-19T08:39:26;0.80;;;0.77;;
8317;SDS011;4196;48.926;8.964;2023-11-19T08:42:13;1.00;;;1.00;;
8317;SDS011;4196;48.926;8.964;2023-11-19T08:45:00;1.47;;;0.97;;
8317;SDS011;4196;48.926;8.964;2023-11-19T08:47:46;2.50;;;1.20;;
8317;SDS011;4196;48.926;8.964;2023-11-19T08:50:33;2.50;;;1.73;;
8317;SDS011;4196;48.926;8.964;2023-11-19T08:53:19;5.43;;;0.80;;
8317;SDS011;4196;48.926;8.964;2023-11-19T08:56:06;1.63;;;1.17;;
8317;SDS011;4196;48.926;8.964;2023-11-19T08:58:54;2.80;;;1.43;;
8317;SDS011;4196;48.926;8.964;2023-11-19T09:01:40;2.90;;;0.87;;
8317;SDS011;4196;48.926;8.964;2023-11-19T09:04:27;1.97;;;0.60;;
8317;SDS011;4196;48.926;8.964;2023-11-19T09:07:14;2.00;;;0.67;;
8317;SDS011;4196;48.926;8.964;2023-11-19T09:10:00;0.93;;;0.83;;
8317;SDS011;4196;48.926;8.964;2023-11-19T09:12:47;1.03;;;0.70;;
8317;SDS011;4196;48.926;8.964;2023-11-19T09:15:33;1.10;;;0.97;;
8317;SDS011;4196;48.926;8.964;2023-11-19T09:18:20;1.13;;;0.60;;
8317;SDS011;4196;48.926;8.964;2023-11-19T09:21:06;0.70;;;0.70;;
8317;SDS011;4196;48.926;8.964;2023-11-19T09:23:53;2.40;;;1.40;;
8317;SDS011;4196;48.926;8.964;2023-11-19T09:26:40;5.30;;;2.73;;
8317;SDS011;4196;48.926;8.964;2023-11-19T09:29:27;3.00;;;1.70;;
8317;SDS011;4196;48.926;8.964;2023-11-19T09:32:19;1.57;;;1.33;;
8317;SDS011;4196;48.926;8.964;2023-11-19T09:35:05;1.43;;;1.33;;
8317;SDS011;4196;48.926;8.964;2023-11-19T09:37:53;0.83;;;0.80;;
8317;SDS011;4196;48.926;8.964;2023-11-19T09:40:40;1.10;;;1.00;;
8317;SDS011;4196;48.926;8.964;2023-11-19T09:43:26;1.43;;;1.33;;
8317;SDS011;4196;48.926;8.964;2023-11-19T09:46:14;0.73;;;0.70;;
8317;SDS011;4196;48.926;8.964;2023-11-19T09:49:01;1.50;;;1.37;;
8317;SDS011;4196;48.926;8.964;2023-11-19T09:51:50;1.50;;;1.40;;
8317;SDS011;4196;48.926;8.964;2023-11-19T09:54:36;1.20;;;1.10;;
8317;SDS011;4196;48.926;8.964;2023-11-19T09:57:23;0.70;;;0.70;;
8317;SDS011;4196;48.926;8.964;2023-11-19T10:00:13;0.50;;;0.50;;
8317;SDS011;4196;48.926;8.964;2023-11-19T10:03:02;0.67;;;0.67;;
8317;SDS011;4196;48.926;8.964;2023-11-19T10:05:49;1.03;;;0.70;;
8317;SDS011;4196;48.926;8.964;2023-11-19T10:08:39;0.40;;;0.40;;
8317;SDS011;4196;48.926;8.964;2023-11-19T10:11:26;1.23;;;0.80;;
8317;SDS011;4196;48.926;8.964;2023-11-19T10:14:12;1.40;;;0.90;;
8317;SDS011;4196;48.926;8.964;2023-11-19T10:17:01;1.00;;;0.57;;
8317;SDS011;4196;48.926;8.964;2023-11-19T10:19:50;2.37;;;0.77;;
8317;SDS011;4196;48.926;8.964;2023-11-19T10:22:37;1.60;;;0.50;;
8317;SDS011;4196;48.926;8.964;2023-11-19T10:25:24;0.80;;;0.70;;
8317;SDS011;4196;48.926;8.964;2023-11-19T10:28:14;2.40;;;1.70;;
8317;SDS011;4196;48.926;8.964;2023-11-19T10:31:02;0.60;;;0.60;;
8317;SDS011;4196;48.926;8.964;2023-11-19T10:33:51;1.87;;;0.63;;
8317;SDS011;4196;48.926;8.964;2023-11-19T10:36:39;0.70;;;0.57;;
8317;SDS011;4196;48.926;8.964;2023-11-19T10:39:37;1.07;;;0.43;;
8317;SDS011;4196;48.926;8.964;2023-11-19T10:42:41;1.17;;;0.70;;
8317;SDS011;4196;48.926;8.964;2023-11-19T10:45:27;1.33;;;0.47;;
8317;SDS011;4196;48.926;8.964;2023-11-19T10:48:13;0.60;;;0.60;;
8317;SDS011;4196;48.926;8.964;2023-11-19T10:51:00;0.80;;;0.80;;
8317;SDS011;4196;48.926;8.964;2023-11-19T10:53:51;1.20;;;1.00;;
8317;SDS011;4196;48.926;8.964;2023-11-19T10:56:42;0.80;;;0.80;;
8317;SDS011;4196;48.926;8.964;2023-11-19T10:59:31;1.70;;;0.97;;
8317;SDS011;4196;48.926;8.964;2023-11-19T11:02:21;7.47;;;1.00;;
8317;SDS011;4196;48.926;8.964;2023-11-19T11:05:11;1.10;;;0.57;;
8317;SDS011;4196;48.926;8.964;2023-11-19T11:07:58;1.03;;;0.67;;
8317;SDS011;4196;48.926;8.964;2023-11-19T11:13:44;1.40;;;0.83;;
8317;SDS011;4196;48.926;8.964;2023-11-19T11:16:32;2.13;;;0.87;;
8317;SDS011;4196;48.926;8.964;2023-11-19T11:19:18;0.77;;;0.77;;
8317;SDS011;4196;48.926;8.964;2023-11-19T11:22:05;1.37;;;1.10;;
8317;SDS011;4196;48.926;8.964;2023-11-19T11:28:13;1.07;;;0.77;;
8317;SDS011;4196;48.926;8.964;2023-11-19T11:31:08;1.33;;;0.70;;
8317;SDS011;4196;48.926;8.964;2023-11-19T11:40:17;1.87;;;1.10;;
8317;SDS011;4196;48.926;8.964;2023-11-19T11:49:22;0.93;;;0.60;;
8317;SDS011;4196;48.926;8.964;2023-11-19T11:52:11;2.83;;;0.80;;
8317;SDS011;4196;48.926;8.964;2023-11-19T11:55:04;1.27;;;0.90;;
8317;SDS011;4196;48.926;8.964;2023-11-19T11:57:55;0.87;;;0.83;;
8317;SDS011;4196;48.926;8.964;2023-11-19T12:00:41;2.27;;;1.30;;
8317;SDS011;4196;48.926;8.964;2023-11-19T12:03:28;0.80;;;0.80;;
8317;SDS011;4196;48.926;8.964;2023-11-19T12:06:20;1.33;;;0.80;;
8317;SDS011;4196;48.926;8.964;2023-11-19T12:09:07;2.23;;;1.00;;
8317;SDS011;4196;48.926;8.964;2023-11-19T12:12:06;1.17;;;1.07;;
8317;SDS011;4196;48.926;8.964;2023-11-19T12:15:04;1.20;;;0.80;;
8317;SDS011;4196;48.926;8.964;2023-11-19T12:17:52;1.70;;;0.63;;
8317;SDS011;4196;48.926;8.964;2023-11-19T12:20:39;0.70;;;0.70;;
8317;SDS011;4196;48.926;8.964;2023-11-19T12:23:29;0.77;;;0.73;;
8317;SDS011;4196;48.926;8.964;2023-11-19T12:26:37;0.97;;;0.60;;
8317;SDS011;4196;48.926;8.964;2023-11-19T12:29:24;4.53;;;1.20;;
8317;SDS011;4196;48.926;8.964;2023-11-19T12:32:10;2.17;;;0.70;;
8317;SDS011;4196;48.926;8.964;2023-11-19T12:35:00;2.47;;;0.87;;
8317;SDS011;4196;48.926;8.964;2023-11-19T12:37:47;0.83;;;0.60;;
8317;SDS011;4196;48.926;8.964;2023-11-19T12:40:35;2.03;;;0.80;;
8317;SDS011;4196;48.926;8.964;2023-11-19T12:43:22;2.83;;;0.90;;
8317;SDS011;4196;48.926;8.964;2023-11-19T12:46:21;2.10;;;1.00;;
8317;SDS011;4196;48.926;8.964;2023-11-19T12:49:10;1.00;;;0.63;;
8317;SDS011;4196;48.926;8.964;2023-11-19T12:51:57;0.53;;;0.53;;
8317;SDS011;4196;48.926;8.964;2023-11-19T12:54:44;2.07;;;0.80;;
8317;SDS011;4196;48.926;8.964;2023-11-19T12:57:40;4.23;;;2.37;;
8317;SDS011;4196;48.926;8.964;2023-11-19T13:00:28;2.33;;;1.57;;
8317;SDS011;4196;48.926;8.964;2023-11-19T13:03:22;1.40;;;1.30;;
8317;SDS011;4196;48.926;8.964;2023-11-19T13:06:15;1.33;;;1.10;;
8317;SDS011;4196;48.926;8.964;2023-11-19T13:09:02;1.10;;;1.00;;
8317;SDS011;4196;48.926;8.964;2023-11-19T13:11:49;2.37;;;0.90;;
8317;SDS011;4196;48.926;8.964;2023-11-19T13:14:36;1.50;;;1.00;;
8317;SDS011;4196;48.926;8.964;2023-11-19T13:17:28;1.23;;;1.00;;
8317;SDS011;4196;48.926;8.964;2023-11-19T13:20:15;1.90;;;1.10;;
8317;SDS011;4196;48.926;8.964;2023-11-19T13:23:03;3.60;;;1.00;;
8317;SDS011;4196;48.926;8.964;2023-11-19T13:25:51;4.97;;;1.70;;
8317;SDS011;4196;48.926;8.964;2023-11-19T13:28:38;3.10;;;1.87;;
8317;SDS011;4196;48.926;8.964;2023-11-19T13:31:25;6.17;;;3.10;;
8317;SDS011;4196;48.926;8.964;2023-11-19T13:34:12;1.50;;;1.20;;
8317;SDS011;4196;48.926;8.964;2023-11-19T13:36:59;3.53;;;1.97;;
8317;SDS011;4196;48.926;8.964;2023-11-19T13:39:46;1.50;;;0.73;;
8317;SDS011;4196;48.926;8.964;2023-11-19T13:42:32;2.13;;;0.80;;
8317;SDS011;4196;48.926;8.964;2023-11-19T13:45:19;1.90;;;1.57;;
8317;SDS011;4196;48.926;8.964;2023-11-19T13:48:07;0.97;;;0.70;;
8317;SDS011;4196;48.926;8.964;2023-11-19T13:50:53;0.70;;;0.67;;
8317;SDS011;4196;48.926;8.964;2023-11-19T13:53:40;1.77;;;1.23;;
8317;SDS011;4196;48.926;8.964;2023-11-19T13:56:29;0.97;;;0.90;;
8317;SDS011;4196;48.926;8.964;2023-11-19T13:59:16;1.13;;;0.70;;
8317;SDS011;4196;48.926;8.964;2023-11-19T14:02:02;3.07;;;0.73;;
8317;SDS011;4196;48.926;8.964;2023-11-19T14:04:49;1.47;;;0.70;;
8317;SDS011;4196;48.926;8.964;2023-11-19T14:07:35;0.90;;;0.70;;
8317;SDS011;4196;48.926;8.964;2023-11-19T14:10:22;1.50;;;0.60;;
8317;SDS011;4196;48.926;8.964;2023-11-19T14:13:09;1.00;;;0.90;;
8317;SDS011;4196;48.926;8.964;2023-11-19T14:15:55;2.13;;;0.87;;
8317;SDS011;4196;48.926;8.964;2023-11-19T14:18:42;1.33;;;1.10;;
8317;SDS011;4196;48.926;8.964;2023-11-19T14:21:29;1.17;;;0.80;;
8317;SDS011;4196;48.926;8.964;2023-11-19T14:24:15;2.47;;;0.70;;
8317;SDS011;4196;48.926;8.964;2023-11-19T14:27:02;2.20;;;0.80;;
8317;SDS011;4196;48.926;8.964;2023-11-19T14:29:48;0.83;;;0.70;;
8317;SDS011;4196;48.926;8.964;2023-11-19T14:32:35;1.30;;;0.80;;
8317;SDS011;4196;48.926;8.964;2023-11-19T14:35:22;1.10;;;1.00;;
8317;SDS011;4196;48.926;8.964;2023-11-19T14:38:08;0.93;;;0.93;;
8317;SDS011;4196;48.926;8.964;2023-11-19T14:40:56;0.80;;;0.80;;
8317;SDS011;4196;48.926;8.964;2023-11-19T14:43:42;0.77;;;0.77;;
8317;SDS011;4196;48.926;8.964;2023-11-19T14:46:29;0.73;;;0.70;;
8317;SDS011;4196;48.926;8.964;2023-11-19T14:49:15;1.57;;;1.47;;
8317;SDS011;4196;48.926;8.964;2023-11-19T14:52:02;2.30;;;0.70;;
8317;SDS011;4196;48.926;8.964;2023-11-19T14:54:53;1.87;;;0.90;;
8317;SDS011;4196;48.926;8.964;2023-11-19T14:57:40;1.10;;;0.93;;
8317;SDS011;4196;48.926;8.964;2023-11-19T15:00:32;1.63;;;0.70;;
8317;SDS011;4196;48.926;8.964;2023-11-19T15:03:20;0.60;;;0.60;;
8317;SDS011;4196;48.926;8.964;2023-11-19T15:06:07;2.27;;;1.23;;
8317;SDS011;4196;48.926;8.964;2023-11-19T15:08:55;1.27;;;0.90;;
8317;SDS011;4196;48.926;8.964;2023-11-19T15:11:42;2.50;;;0.77;;
8317;SDS011;4196;48.926;8.964;2023-11-19T15:14:29;1.17;;;0.73;;
8317;SDS011;4196;48.926;8.964;2023-11-19T15:17:16;0.67;;;0.67;;
8317;SDS011;4196;48.926;8.964;2023-11-19T15:20:03;1.17;;;0.70;;
8317;SDS011;4196;48.926;8.964;2023-11-19T15:22:50;2.20;;;0.77;;
8317;SDS011;4196;48.926;8.964;2023-11-19T15:25:36;1.20;;;0.97;;
8317;SDS011;4196;48.926;8.964;2023-11-19T15:28:23;1.37;;;0.77;;
8317;SDS011;4196;48.926;8.964;2023-11-19T15:31:09;1.83;;;1.03;;
8317;SDS011;4196;48.926;8.964;2023-11-19T15:33:56;0.90;;;0.77;;
8317;SDS011;4196;48.926;8.964;2023-11-19T15:36:43;1.50;;;0.70;;
8317;SDS011;4196;48.926;8.964;2023-11-19T15:39:29;2.53;;;1.23;;
8317;SDS011;4196;48.926;8.964;2023-11-19T15:42:17;1.63;;;1.13;;
8317;SDS011;4196;48.926;8.964;2023-11-19T15:45:04;1.43;;;0.80;;
8317;SDS011;4196;48.926;8.964;2023-11-19T15:47:51;0.83;;;0.80;;
8317;SDS011;4196;48.926;8.964;2023-11-19T15:50:38;4.20;;;0.90;;
8317;SDS011;4196;48.926;8.964;2023-11-19T15:53:24;1.07;;;0.87;;
8317;SDS011;4196;48.926;8.964;2023-11-19T15:56:11;0.97;;;0.97;;
8317;SDS011;4196;48.926;8.964;2023-11-19T15:58:58;2.87;;;0.97;;
8317;SDS011;4196;48.926;8.964;2023-11-19T16:01:44;2.17;;;0.67;;
8317;SDS011;4196;48.926;8.964;2023-11-19T16:04:31;3.70;;;0.80;;
8317;SDS011;4196;48.926;8.964;2023-11-19T16:07:17;1.17;;;1.07;;
8317;SDS011;4196;48.926;8.964;2023-11-19T16:10:06;0.73;;;0.73;;
8317;SDS011;4196;48.926;8.964;2023-11-19T16:12:55;1.43;;;0.60;;
8317;SDS011;4196;48.926;8.964;2023-11-19T16:15:42;2.77;;;2.00;;
8317;SDS011;4196;48.926;8.964;2023-11-19T16:18:28;0.90;;;0.80;;
8317;SDS011;4196;48.926;8.964;2023-11-19T16:21:15;1.13;;;0.90;;
8317;SDS011;4196;48.926;8.964;2023-11-19T16:24:01;2.70;;;1.63;;
8317;SDS011;4196;48.926;8.964;2023-11-19T16:26:48;2.53;;;0.90;;
8317;SDS011;4196;48.926;8.964;2023-11-19T16:29:34;1.20;;;1.10;;
8317;SDS011;4196;48.926;8.964;2023-11-19T16:32:21;2.13;;;1.20;;
8317;SDS011;4196;48.926;8.964;2023-11-19T16:35:08;1.93;;;1.20;;
8317;SDS011;4196;48.926;8.964;2023-11-19T16:37:56;1.97;;;1.77;;
8317;SDS011;4196;48.926;8.964;2023-11-19T16:40:42;1.40;;;1.30;;
8317;SDS011;4196;48.926;8.964;2023-11-19T16:43:29;2.93;;;2.00;;
8317;SDS011;4196;48.926;8.964;2023-11-19T16:46:15;1.93;;;1.30;;
8317;SDS011;4196;48.926;8.964;2023-11-19T16:49:02;2.57;;;1.40;;
8317;SDS011;4196;48.926;8.964;2023-11-19T16:51:48;2.07;;;1.10;;
8317;SDS011;4196;48.926;8.964;2023-11-19T16:54:35;2.17;;;1.93;;
8317;SDS011;4196;48.926;8.964;2023-11-19T16:57:22;1.73;;;1.30;;
8317;SDS011;4196;48.926;8.964;2023-11-19T17:00:08;2.80;;;1.60;;
8317;SDS011;4196;48.926;8.964;2023-11-19T17:02:57;2.97;;;2.10;;
8317;SDS011;4196;48.926;8.964;2023-11-19T17:05:47;2.57;;;2.00;;
8317;SDS011;4196;48.926;8.964;2023-11-19T17:08:34;3.93;;;1.23;;
8317;SDS011;4196;48.926;8.964;2023-11-19T17:11:20;3.37;;;1.67;;
8317;SDS011;4196;48.926;8.964;2023-11-19T17:14:07;3.83;;;2.07;;
8317;SDS011;4196;48.926;8.964;2023-11-19T17:16:54;3.27;;;2.27;;
8317;SDS011;4196;48.926;8.964;2023-11-19T17:19:40;2.53;;;1.67;;
8317;SDS011;4196;48.926;8.964;2023-11-19T17:22:28;3.13;;;1.80;;
8317;SDS011;4196;48.926;8.964;2023-11-19T17:25:14;11.43;;;2.67;;
8317;SDS011;4196;48.926;8.964;2023-11-19T17:28:00;3.63;;;1.10;;
8317;SDS011;4196;48.926;8.964;2023-11-19T17:30:47;2.93;;;1.97;;
8317;SDS011;4196;48.926;8.964;2023-11-19T17:33:33;1.10;;;1.00;;
8317;SDS011;4196;48.926;8.964;2023-11-19T17:36:20;2.73;;;1.20;;
8317;SDS011;4196;48.926;8.964;2023-11-19T17:39:06;1.73;;;1.20;;